Time;durP1;ratioP1;P1;durP2;ratioP2;P2;SDS_P1;SDS_P2;PMS_P1;PMS_P2;Temp;Humidity;BMP_temperature;BMP_pressure;BME280_temperature;BME280_humidity;BME280_pressure;Samples;Min_cycle;Max_cycle;Signal;HPM_P1;HPM_P2
2022/05/22 00:01:15;;;;;;;2.90;2.00;;;18.30;91.10;;;;;;5048408;28;20298;-68
2022/05/22 00:03:41;;;;;;;2.23;1.90;;;18.30;91.10;;;;;;5048846;28;20212;-69
2022/05/22 00:06:08;;;;;;;2.30;2.10;;;18.20;91.20;;;;;;5041862;28;20459;-69
2022/05/22 00:08:34;;;;;;;2.33;1.87;;;18.20;91.10;;;;;;5034350;28;20474;-70
2022/05/22 00:11:00;;;;;;;2.17;1.97;;;18.10;91.20;;;;;;5036843;28;20978;-70
2022/05/22 00:13:26;;;;;;;3.07;1.67;;;18.00;91.30;;;;;;5049395;28;20501;-69
2022/05/22 00:18:36;;;;;;;2.23;2.13;;;18.10;91.40;;;;;;5048296;28;20215;-69
2022/05/22 00:21:01;;;;;;;6.70;2.40;;;18.00;91.40;;;;;;5046492;28;20442;-69
2022/05/22 00:23:29;;;;;;;3.57;2.93;;;18.00;91.40;;;;;;5048956;28;20310;-69
2022/05/22 00:25:56;;;;;;;2.33;2.13;;;18.00;91.80;;;;;;5047373;28;20211;-69
2022/05/22 00:28:21;;;;;;;10.00;2.03;;;18.00;91.40;;;;;;5048302;28;20450;-68
2022/05/22 00:30:47;;;;;;;2.40;2.20;;;18.00;91.30;;;;;;5039189;28;20459;-68
2022/05/22 00:33:12;;;;;;;2.33;2.23;;;18.00;91.30;;;;;;5032689;28;20320;-70
2022/05/22 00:35:40;;;;;;;2.60;2.40;;;17.80;91.30;;;;;;5028012;28;20231;-71
2022/05/22 00:38:06;;;;;;;2.27;2.10;;;17.80;91.40;;;;;;5038065;28;20266;-68
2022/05/22 00:40:32;;;;;;;2.13;1.73;;;17.80;91.40;;;;;;5047293;28;20818;-68
2022/05/22 00:42:58;;;;;;;3.33;1.73;;;17.80;91.40;;;;;;5049312;28;20218;-68
2022/05/22 00:45:24;;;;;;;2.73;2.13;;;17.70;91.60;;;;;;5048005;28;20451;-69
2022/05/22 00:47:54;;;;;;;2.20;2.10;;;17.70;91.50;;;;;;5025636;28;20239;-70
2022/05/22 00:50:23;;;;;;;2.90;2.13;;;17.70;91.50;;;;;;5045663;28;20442;-67
2022/05/22 00:52:54;;;;;;;3.87;2.77;;;17.70;91.50;;;;;;5028907;28;20462;-69
2022/05/22 00:55:26;;;;;;;2.50;2.30;;;17.60;91.50;;;;;;5039864;28;20443;-67
2022/05/22 00:58:12;;;;;;;3.73;2.23;;;17.60;91.60;;;;;;5035991;28;21010;-68
2022/05/22 01:00:40;;;;;;;3.43;2.20;;;17.60;91.70;;;;;;5053564;28;20462;-69
2022/05/22 01:03:29;;;;;;;4.70;2.20;;;17.40;91.70;;;;;;5052297;28;21194;-68
2022/05/22 01:06:10;;;;;;;2.30;2.10;;;17.40;91.70;;;;;;5050891;28;20446;-69
2022/05/22 01:08:37;;;;;;;2.13;1.93;;;17.40;91.80;;;;;;5049149;28;20465;-68
2022/05/22 01:11:09;;;;;;;2.60;2.40;;;17.40;91.90;;;;;;5046601;28;20442;-68
2022/05/22 01:13:42;;;;;;;1.73;1.63;;;17.40;91.90;;;;;;5035284;28;20830;-68
2022/05/22 01:16:08;;;;;;;4.80;2.50;;;17.40;91.90;;;;;;5040570;28;20458;-71
2022/05/22 01:18:51;;;;;;;8.10;2.13;;;17.40;91.90;;;;;;5051407;28;20464;-68
2022/05/22 01:21:20;;;;;;;2.27;2.00;;;17.40;91.90;;;;;;5046339;28;20643;-69
2022/05/22 01:23:47;;;;;;;2.67;2.47;;;17.30;91.80;;;;;;5042175;28;21037;-70
2022/05/22 01:26:21;;;;;;;2.73;2.23;;;17.30;91.90;;;;;;5050811;28;20829;-68
2022/05/22 01:29:00;;;;;;;2.17;1.97;;;17.30;91.90;;;;;;5049796;28;20541;-69
2022/05/22 01:31:25;;;;;;;2.40;2.20;;;17.30;92.00;;;;;;5044134;28;20518;-69
2022/05/22 01:33:51;;;;;;;1.83;1.73;;;17.30;92.10;;;;;;5034125;28;20730;-68
2022/05/22 01:36:17;;;;;;;2.87;2.30;;;17.20;92.10;;;;;;5048825;28;20223;-69
2022/05/22 01:38:49;;;;;;;2.10;1.90;;;17.20;92.10;;;;;;5041277;28;20216;-68
2022/05/22 01:41:16;;;;;;;3.17;2.37;;;17.20;92.10;;;;;;5049956;28;20541;-68
2022/05/22 01:43:42;;;;;;;2.40;2.27;;;17.10;92.10;;;;;;5028214;28;20534;-69
2022/05/22 01:46:15;;;;;;;3.20;2.73;;;17.10;92.20;;;;;;5050906;28;20223;-70
2022/05/22 01:48:50;;;;;;;3.10;2.37;;;17.10;92.20;;;;;;5048007;28;20451;-69
2022/05/22 01:51:20;;;;;;;2.33;2.13;;;17.10;92.30;;;;;;5046032;28;20518;-68
2022/05/22 01:53:46;;;;;;;2.97;2.70;;;17.10;92.30;;;;;;5023361;28;20538;-68
2022/05/22 01:56:13;;;;;;;5.00;2.90;;;17.10;92.30;;;;;;5043146;28;20223;-68
2022/05/22 01:58:40;;;;;;;3.20;2.27;;;17.00;92.30;;;;;;5043424;28;20453;-69
2022/05/22 02:01:08;;;;;;;3.57;2.20;;;17.00;92.30;;;;;;5034425;28;20483;-70
2022/05/22 02:03:34;;;;;;;2.73;2.53;;;17.00;92.30;;;;;;5037458;28;20522;-74
2022/05/22 02:06:00;;;;;;;2.57;2.37;;;16.90;92.30;;;;;;5048911;28;20575;-72
2022/05/22 02:08:26;;;;;;;2.10;2.00;;;16.90;92.40;;;;;;5044854;28;20854;-68
2022/05/22 02:11:00;;;;;;;2.47;2.27;;;16.90;92.50;;;;;;5047291;28;20212;-70
2022/05/22 02:13:31;;;;;;;4.07;2.63;;;16.80;92.30;;;;;;5015772;28;20460;-71
2022/05/22 02:15:56;;;;;;;3.70;2.40;;;16.80;92.50;;;;;;5016708;28;20456;-71
2022/05/22 02:18:22;;;;;;;3.60;2.20;;;16.80;92.50;;;;;;5014670;28;20831;-71
2022/05/22 02:20:48;;;;;;;2.47;2.27;;;16.80;92.50;;;;;;5027161;28;20244;-69
2022/05/22 02:23:15;;;;;;;3.57;2.80;;;16.80;92.50;;;;;;5033421;28;20378;-69
2022/05/22 02:25:44;;;;;;;4.03;2.20;;;16.70;92.50;;;;;;5017153;28;20506;-68
2022/05/22 02:28:14;;;;;;;3.30;2.43;;;16.70;92.60;;;;;;5035609;28;20477;-68
2022/05/22 02:30:43;;;;;;;2.57;2.10;;;16.70;92.60;;;;;;5016199;28;20479;-70
2022/05/22 02:33:10;;;;;;;2.50;2.30;;;16.60;92.60;;;;;;5015185;28;20464;-70
2022/05/22 02:35:52;;;;;;;2.20;2.03;;;16.60;92.70;;;;;;5008851;28;20460;-69
2022/05/22 02:38:25;;;;;;;6.90;2.37;;;16.60;92.60;;;;;;5046374;28;20443;-69
2022/05/22 02:40:52;;;;;;;1.97;1.87;;;16.60;92.70;;;;;;5044868;28;20447;-67
2022/05/22 02:43:18;;;;;;;2.80;2.10;;;16.50;92.70;;;;;;5048076;28;20458;-74
2022/05/22 02:45:49;;;;;;;2.17;2.07;;;16.50;92.80;;;;;;5050356;28;20303;-68
2022/05/22 02:48:16;;;;;;;2.57;2.27;;;16.40;92.90;;;;;;5035078;28;20509;-71
2022/05/22 02:50:55;;;;;;;2.80;2.00;;;16.40;92.70;;;;;;5043186;28;21090;-69
2022/05/22 02:53:22;;;;;;;4.70;3.40;;;16.40;92.80;;;;;;5037815;28;20524;-69
2022/05/22 02:56:20;;;;;;;2.50;2.20;;;16.40;92.80;;;;;;5038980;28;20462;-67
2022/05/22 02:59:04;;;;;;;3.87;2.60;;;16.40;92.90;;;;;;5037261;28;20462;-70
2022/05/22 03:01:44;;;;;;;2.83;2.47;;;16.40;92.80;;;;;;5033952;28;20473;-68
2022/05/22 03:04:10;;;;;;;4.63;2.63;;;16.30;92.80;;;;;;5039739;28;20545;-73
2022/05/22 03:06:39;;;;;;;2.40;2.13;;;16.30;92.90;;;;;;5041060;28;20526;-70
2022/05/22 03:09:07;;;;;;;4.47;2.47;;;16.30;92.90;;;;;;5041211;28;20219;-69
2022/05/22 03:11:37;;;;;;;4.10;2.60;;;16.20;92.90;;;;;;5036336;28;20550;-68
2022/05/22 03:14:02;;;;;;;2.33;2.13;;;16.20;92.80;;;;;;5037649;28;20520;-69
2022/05/22 03:16:28;;;;;;;3.10;2.27;;;16.20;92.90;;;;;;5043983;28;20462;-69
2022/05/22 03:19:06;;;;;;;2.57;2.37;;;16.20;92.90;;;;;;5057903;28;20303;-70
2022/05/22 03:21:32;;;;;;;2.27;2.07;;;16.10;92.80;;;;;;5039234;28;20549;-68
2022/05/22 03:24:00;;;;;;;2.80;2.50;;;16.00;93.00;;;;;;5047178;28;20215;-69
2022/05/22 03:26:25;;;;;;;3.20;2.57;;;15.90;93.10;;;;;;5036790;28;20539;-67
2022/05/22 03:28:51;;;;;;;5.13;2.47;;;15.90;93.10;;;;;;5043340;28;20631;-70
2022/05/22 03:31:18;;;;;;;2.93;2.73;;;15.90;93.10;;;;;;5041179;28;20236;-68
2022/05/22 03:33:44;;;;;;;3.10;2.70;;;15.90;93.10;;;;;;5041262;28;20466;-71
2022/05/22 03:36:10;;;;;;;2.70;2.50;;;15.90;93.10;;;;;;5041922;28;20244;-68
2022/05/22 03:38:36;;;;;;;3.20;2.27;;;15.90;93.20;;;;;;5027051;28;20303;-68
2022/05/22 03:41:04;;;;;;;3.33;2.60;;;15.90;93.20;;;;;;5028608;28;20538;-68
2022/05/22 03:43:35;;;;;;;2.30;2.20;;;15.80;93.10;;;;;;5053524;28;20454;-71
2022/05/22 03:46:01;;;;;;;2.60;2.33;;;15.80;93.10;;;;;;5039737;28;20466;-69
2022/05/22 03:48:27;;;;;;;3.00;2.80;;;15.80;93.10;;;;;;5046460;28;20211;-69
2022/05/22 03:50:53;;;;;;;2.53;2.33;;;15.80;93.20;;;;;;5042957;28;20516;-69
2022/05/22 03:53:23;;;;;;;2.40;2.07;;;15.80;93.50;;;;;;5040982;28;20268;-69
2022/05/22 03:55:49;;;;;;;2.70;2.50;;;15.70;93.10;;;;;;5052218;28;20463;-68
2022/05/22 03:58:19;;;;;;;3.50;2.40;;;15.60;93.30;;;;;;5043530;28;20476;-67
2022/05/22 04:00:48;;;;;;;3.00;2.70;;;15.60;93.30;;;;;;5038224;28;20478;-69
2022/05/22 04:03:14;;;;;;;2.70;2.50;;;15.70;93.30;;;;;;5037972;28;20470;-69
2022/05/22 04:05:40;;;;;;;3.30;2.87;;;15.70;93.30;;;;;;5036967;28;20238;-69
2022/05/22 04:08:07;;;;;;;3.80;2.63;;;15.60;93.30;;;;;;5035868;28;20215;-68
2022/05/22 04:10:43;;;;;;;4.30;3.90;;;15.50;93.50;;;;;;5038561;28;20827;-69
2022/05/22 04:13:09;;;;;;;3.37;2.70;;;15.50;93.50;;;;;;5047266;28;20458;-71
2022/05/22 04:15:35;;;;;;;3.23;2.37;;;15.50;93.50;;;;;;5039126;28;20529;-69
2022/05/22 04:18:03;;;;;;;2.90;2.33;;;15.50;94.00;;;;;;5038348;28;20215;-70
2022/05/22 04:20:31;;;;;;;3.40;2.67;;;15.50;93.90;;;;;;5024034;28;20850;-68
2022/05/22 04:26:15;;;;;;;5.73;2.80;;;15.50;93.70;;;;;;5037275;28;20464;-69
2022/05/22 04:28:42;;;;;;;2.93;2.60;;;15.50;93.60;;;;;;5050536;28;20446;-69
2022/05/22 04:31:17;;;;;;;2.73;2.53;;;15.50;93.70;;;;;;5040292;28;20461;-68
2022/05/22 04:34:02;;;;;;;5.47;2.37;;;15.50;93.60;;;;;;5049320;28;20479;-69
2022/05/22 04:36:28;;;;;;;4.27;2.30;;;15.50;93.70;;;;;;5038364;28;20473;-69
2022/05/22 04:38:54;;;;;;;2.63;2.20;;;15.50;93.70;;;;;;5042626;28;20451;-69
2022/05/22 04:41:21;;;;;;;3.27;2.60;;;15.50;93.70;;;;;;5040125;28;20759;-68
2022/05/22 04:43:47;;;;;;;2.40;2.20;;;15.50;94.00;;;;;;5047432;28;20219;-69
2022/05/22 04:46:13;;;;;;;2.63;2.40;;;15.50;93.90;;;;;;5039739;28;20459;-68
2022/05/22 04:48:38;;;;;;;3.30;2.50;;;15.50;93.90;;;;;;5047231;28;20219;-69
2022/05/22 04:51:05;;;;;;;2.20;2.00;;;15.50;94.10;;;;;;5045100;28;20483;-69
2022/05/22 04:53:30;;;;;;;2.77;2.50;;;15.60;94.30;;;;;;5042553;28;20506;-68
2022/05/22 04:56:20;;;;;;;4.93;3.50;;;15.60;94.20;;;;;;5040699;28;20228;-68
2022/05/22 04:58:51;;;;;;;3.10;2.83;;;15.60;94.40;;;;;;5045085;28;21000;-70
2022/05/22 05:01:17;;;;;;;3.33;3.03;;;15.60;94.30;;;;;;5039210;28;20601;-70
2022/05/22 05:04:02;;;;;;;2.80;2.60;;;15.60;94.20;;;;;;5041728;28;20455;-68
2022/05/22 05:06:31;;;;;;;4.17;2.80;;;15.70;94.90;;;;;;5028567;28;20456;-69
2022/05/22 05:08:59;;;;;;;3.43;3.00;;;15.70;94.40;;;;;;5050043;28;20509;-70
2022/05/22 05:11:31;;;;;;;4.60;3.30;;;15.70;94.60;;;;;;5044697;28;20462;-68
2022/05/22 05:14:02;;;;;;;2.70;2.50;;;15.70;94.50;;;;;;5028999;28;21087;-68
2022/05/22 05:16:29;;;;;;;2.90;2.70;;;15.70;94.70;;;;;;5047829;28;20510;-68
2022/05/22 05:19:14;;;;;;;3.37;2.67;;;15.70;95.10;;;;;;5037533;28;20269;-68
2022/05/22 05:21:42;;;;;;;4.70;2.70;;;15.70;95.40;;;;;;5041664;28;20458;-69
2022/05/22 05:24:10;;;;;;;2.80;2.60;;;15.70;95.40;;;;;;5027957;28;20442;-68
2022/05/22 05:26:37;;;;;;;3.13;2.83;;;15.70;95.20;;;;;;5042298;28;20471;-68
2022/05/22 05:29:08;;;;;;;3.50;3.13;;;15.70;95.10;;;;;;5041054;28;20502;-70
2022/05/22 05:31:38;;;;;;;4.13;2.80;;;15.80;95.10;;;;;;5043104;28;20460;-69
2022/05/22 05:34:04;;;;;;;2.70;2.50;;;15.80;95.10;;;;;;5052496;28;20465;-69
2022/05/22 05:36:34;;;;;;;4.53;2.57;;;15.90;95.60;;;;;;5047403;28;20229;-69
2022/05/22 05:39:09;;;;;;;5.10;2.53;;;15.90;95.50;;;;;;5036276;28;20469;-68
2022/05/22 05:41:46;;;;;;;3.40;2.80;;;16.00;95.40;;;;;;5052116;28;21053;-68
2022/05/22 05:44:14;;;;;;;3.03;2.80;;;16.00;95.40;;;;;;5046570;28;20454;-67
2022/05/22 05:47:08;;;;;;;3.60;3.30;;;16.00;95.40;;;;;;5045451;28;20477;-69
2022/05/22 05:49:41;;;;;;;2.40;2.20;;;16.00;95.50;;;;;;5037055;28;20974;-69
2022/05/22 05:52:31;;;;;;;2.53;2.33;;;16.10;95.90;;;;;;5053650;28;20455;-70
2022/05/22 05:54:59;;;;;;;3.20;2.53;;;16.10;96.00;;;;;;5037806;28;20471;-70
2022/05/22 05:58:00;;;;;;;3.73;2.60;;;16.20;96.60;;;;;;5052790;28;20473;-71
2022/05/22 06:00:26;;;;;;;5.40;3.00;;;16.20;96.20;;;;;;5028168;28;20454;-69
2022/05/22 06:02:52;;;;;;;4.43;2.53;;;16.30;96.40;;;;;;5049755;28;20457;-68
2022/05/22 06:05:21;;;;;;;2.93;2.73;;;16.30;96.40;;;;;;5044139;28;20457;-71
2022/05/22 06:07:51;;;;;;;3.13;2.83;;;16.40;96.60;;;;;;5037443;28;20466;-69
2022/05/22 06:10:20;;;;;;;4.80;2.37;;;16.50;96.80;;;;;;5044065;28;20537;-69
2022/05/22 06:12:56;;;;;;;3.10;2.37;;;16.50;96.80;;;;;;5050951;28;20520;-69
2022/05/22 06:15:22;;;;;;;4.00;3.30;;;16.60;97.30;;;;;;5044380;28;20447;-69
2022/05/22 06:17:47;;;;;;;2.73;2.53;;;16.70;97.50;;;;;;5042238;28;20212;-72
2022/05/22 06:20:19;;;;;;;3.20;3.00;;;16.80;97.40;;;;;;5038874;28;20216;-68
2022/05/22 06:22:46;;;;;;;4.93;2.83;;;16.90;97.30;;;;;;5047033;28;20452;-70
2022/05/22 06:25:30;;;;;;;2.77;2.53;;;16.90;97.30;;;;;;5043093;28;20474;-70
2022/05/22 06:28:15;;;;;;;2.53;2.33;;;17.00;97.30;;;;;;5041644;28;20998;-69
2022/05/22 06:31:04;;;;;;;3.67;2.80;;;17.10;97.70;;;;;;5038698;28;20458;-68
2022/05/22 06:33:46;;;;;;;4.13;2.73;;;17.20;97.50;;;;;;5037732;28;21032;-71
2022/05/22 06:36:30;;;;;;;3.10;2.63;;;17.20;97.40;;;;;;5044362;28;20469;-70
2022/05/22 06:42:34;;;;;;;3.90;3.60;;;17.30;97.60;;;;;;5038610;28;20975;-69
2022/05/22 06:45:26;;;;;;;4.90;3.40;;;17.50;97.40;;;;;;5033146;28;20825;-69
2022/05/22 06:48:10;;;;;;;3.13;2.93;;;17.50;97.50;;;;;;5035461;28;20482;-70
2022/05/22 06:50:55;;;;;;;3.40;3.10;;;17.60;97.50;;;;;;5041856;28;20453;-69
2022/05/22 06:53:39;;;;;;;4.63;3.30;;;17.60;97.70;;;;;;5044130;28;20818;-70
2022/05/22 06:56:16;;;;;;;4.83;3.10;;;17.70;97.80;;;;;;5034344;28;20466;-67
2022/05/22 06:58:54;;;;;;;2.73;2.53;;;17.70;97.70;;;;;;5044516;28;20836;-69
2022/05/22 07:01:24;;;;;;;2.97;2.77;;;17.80;97.90;;;;;;5043732;28;20501;-70
2022/05/22 07:04:08;;;;;;;4.43;3.27;;;17.90;98.00;;;;;;5038815;28;20470;-69
2022/05/22 07:06:33;;;;;;;4.03;2.90;;;18.00;98.00;;;;;;5040880;28;20451;-70
2022/05/22 07:09:20;;;;;;;3.33;3.00;;;18.10;98.10;;;;;;5044918;28;23370;-69
2022/05/22 07:12:22;;;;;;;2.73;2.53;;;18.20;98.40;;;;;;5031715;28;20927;-69
2022/05/22 07:14:55;;;;;;;7.40;3.07;;;18.30;98.10;;;;;;5035224;28;20531;-68
2022/05/22 07:17:40;;;;;;;3.40;2.83;;;18.40;98.20;;;;;;5042906;28;20839;-72
2022/05/22 07:20:23;;;;;;;2.40;2.23;;;18.60;98.20;;;;;;5033203;28;20454;-67
2022/05/22 07:23:05;;;;;;;4.57;3.03;;;18.60;97.90;;;;;;5041370;28;20469;-69
2022/05/22 07:25:54;;;;;;;4.60;2.90;;;18.70;98.00;;;;;;5046700;28;20473;-67
2022/05/22 07:28:36;;;;;;;3.93;2.93;;;18.70;97.60;;;;;;5023389;28;20458;-69
2022/05/22 07:31:18;;;;;;;3.00;2.77;;;18.70;97.80;;;;;;5038970;28;20443;-68
2022/05/22 07:34:04;;;;;;;2.70;2.50;;;18.90;97.90;;;;;;5043801;28;20908;-68
2022/05/22 07:36:52;;;;;;;4.43;2.73;;;19.00;97.70;;;;;;5044473;28;20449;-69
2022/05/22 07:39:37;;;;;;;3.50;2.97;;;19.10;97.70;;;;;;5045429;28;20454;-70
2022/05/22 07:42:21;;;;;;;2.67;2.47;;;19.20;97.50;;;;;;5043477;28;20465;-70
2022/05/22 07:45:07;;;;;;;2.33;2.13;;;19.20;97.30;;;;;;5046230;28;20988;-69
2022/05/22 07:48:08;;;;;;;3.30;2.40;;;19.30;97.40;;;;;;5035995;28;20452;-68
2022/05/22 07:50:52;;;;;;;3.40;2.40;;;19.40;97.10;;;;;;5046731;28;20512;-69
2022/05/22 07:53:42;;;;;;;2.80;2.50;;;19.50;97.00;;;;;;5030301;28;20623;-70
2022/05/22 07:56:22;;;;;;;2.47;2.27;;;19.60;97.00;;;;;;5040874;28;20470;-69
2022/05/22 07:59:08;;;;;;;2.23;2.07;;;19.70;96.90;;;;;;5041110;28;20479;-68
2022/05/22 08:01:40;;;;;;;4.00;3.07;;;19.80;96.40;;;;;;5043598;28;20472;-69
2022/05/22 08:04:29;;;;;;;3.30;2.40;;;19.80;96.50;;;;;;5037722;28;20530;-69
2022/05/22 08:07:13;;;;;;;3.00;2.67;;;19.90;96.20;;;;;;5038162;28;20451;-68
2022/05/22 08:09:57;;;;;;;3.43;2.43;;;20.00;96.30;;;;;;5041748;28;20457;-68
2022/05/22 08:12:24;;;;;;;3.97;2.50;;;20.10;96.30;;;;;;5041327;28;20864;-68
2022/05/22 08:14:54;;;;;;;4.30;2.50;;;20.00;95.90;;;;;;5040437;28;21017;-68
2022/05/22 08:17:21;;;;;;;2.87;2.50;;;20.20;96.40;;;;;;5039697;28;20445;-72
2022/05/22 08:19:49;;;;;;;4.23;2.90;;;20.30;96.20;;;;;;5040103;28;20252;-68
2022/05/22 08:22:24;;;;;;;2.50;2.30;;;20.40;96.10;;;;;;5041036;28;20457;-68
2022/05/22 08:25:18;;;;;;;3.03;2.73;;;20.60;96.10;;;;;;5040239;28;20469;-69
2022/05/22 08:27:44;;;;;;;3.97;2.20;;;20.70;96.00;;;;;;5041828;28;20464;-70
2022/05/22 08:30:13;;;;;;;2.93;2.63;;;20.80;95.90;;;;;;5035985;28;20459;-69
2022/05/22 08:32:41;;;;;;;4.00;2.37;;;20.80;95.60;;;;;;5045113;28;20470;-68
2022/05/22 08:35:09;;;;;;;2.60;2.40;;;20.90;95.60;;;;;;5028761;28;20483;-70
2022/05/22 08:37:35;;;;;;;3.60;2.43;;;21.00;95.50;;;;;;5040783;28;21080;-69
2022/05/22 08:40:02;;;;;;;2.93;2.70;;;21.20;96.20;;;;;;5036048;28;20455;-70
2022/05/22 08:42:41;;;;;;;2.37;2.20;;;21.20;95.00;;;;;;5036632;28;21012;-71
2022/05/22 08:45:23;;;;;;;3.33;2.50;;;21.10;95.10;;;;;;5038235;28;20460;-70
2022/05/22 08:48:14;;;;;;;3.50;2.30;;;21.30;94.90;;;;;;5052414;28;20458;-70
2022/05/22 08:50:41;;;;;;;3.30;1.90;;;21.30;94.60;;;;;;5039476;28;20481;-70
2022/05/22 08:53:17;;;;;;;2.50;2.40;;;21.40;93.90;;;;;;5035917;28;20465;-69
2022/05/22 08:58:57;;;;;;;5.93;2.47;;;21.50;94.60;;;;;;5039010;28;20546;-70
2022/05/22 09:01:45;;;;;;;2.60;2.17;;;21.60;94.80;;;;;;5040491;28;20577;-70
2022/05/22 09:04:30;;;;;;;2.77;2.57;;;21.80;94.40;;;;;;5039059;28;20997;-69
2022/05/22 09:07:03;;;;;;;2.20;2.00;;;21.90;94.10;;;;;;5054843;28;20502;-69
2022/05/22 09:09:33;;;;;;;2.27;2.07;;;21.90;93.20;;;;;;5039357;28;20470;-67
2022/05/22 09:12:36;;;;;;;3.33;2.33;;;21.90;92.70;;;;;;5046939;28;20469;-68
2022/05/22 09:15:08;;;;;;;4.60;2.10;;;21.90;93.50;;;;;;5033685;28;20973;-70
2022/05/22 09:17:54;;;;;;;2.30;2.10;;;22.10;93.40;;;;;;5041413;28;20454;-68
2022/05/22 09:20:26;;;;;;;2.47;2.27;;;22.10;92.60;;;;;;5049742;28;20550;-69
2022/05/22 09:23:25;;;;;;;2.40;2.17;;;22.20;93.10;;;;;;5024247;28;20463;-70
2022/05/22 09:25:57;;;;;;;2.93;2.30;;;22.20;92.30;;;;;;5033660;28;20955;-69
2022/05/22 09:28:48;;;;;;;2.57;1.97;;;22.20;92.70;;;;;;5045090;28;20475;-67
2022/05/22 09:32:01;;;;;;;2.30;2.20;;;22.30;92.80;;;;;;5050200;28;20507;-68
2022/05/22 09:34:58;;;;;;;2.57;2.37;;;22.50;92.90;;;;;;5049033;28;20557;-73
2022/05/22 09:37:52;;;;;;;2.30;2.10;;;22.60;92.80;;;;;;5044636;28;21164;-68
2022/05/22 09:40:34;;;;;;;2.43;2.23;;;22.70;92.80;;;;;;5049089;28;20525;-73
2022/05/22 09:43:11;;;;;;;3.87;2.47;;;22.70;92.40;;;;;;5037800;28;20454;-67
2022/05/22 09:45:49;;;;;;;3.10;2.23;;;23.00;92.90;;;;;;5047910;28;20453;-68
2022/05/22 09:48:29;;;;;;;2.07;1.97;;;23.20;92.90;;;;;;5046849;28;20460;-68
2022/05/22 09:51:00;;;;;;;2.07;1.87;;;23.30;92.40;;;;;;5044383;28;20449;-68
2022/05/22 09:53:45;;;;;;;3.50;1.80;;;23.40;92.10;;;;;;5048426;28;20520;-68
2022/05/22 09:56:47;;;;;;;2.47;2.30;;;23.40;91.50;;;;;;5040825;28;20466;-69
2022/05/22 09:59:49;;;;;;;2.93;2.40;;;23.40;91.90;;;;;;5048848;28;20446;-68
2022/05/22 10:02:46;;;;;;;2.23;2.07;;;23.50;91.60;;;;;;5046440;28;20442;-68
2022/05/22 10:05:29;;;;;;;2.93;2.53;;;23.60;91.60;;;;;;5039125;28;20977;-70
2022/05/22 10:08:01;;;;;;;2.57;2.40;;;24.00;91.20;;;;;;5040856;28;20493;-69
2022/05/22 10:10:59;;;;;;;2.67;2.10;;;24.20;91.00;;;;;;5030613;28;20502;-69
2022/05/22 10:13:24;;;;;;;4.70;2.83;;;24.40;90.30;;;;;;5041797;28;20992;-70
2022/05/22 10:16:28;;;;;;;2.33;2.10;;;24.40;91.20;;;;;;5043140;28;20453;-68
2022/05/22 10:19:03;;;;;;;2.13;1.93;;;24.40;91.00;;;;;;5045431;28;20219;-70
2022/05/22 10:21:51;;;;;;;2.67;1.87;;;24.40;90.20;;;;;;5049677;28;20437;-71
2022/05/22 10:24:42;;;;;;;2.97;1.90;;;24.40;90.50;;;;;;5045210;28;20453;-68
2022/05/22 10:27:20;;;;;;;3.03;1.90;;;24.50;90.80;;;;;;5048655;28;20488;-71
2022/05/22 10:30:09;;;;;;;2.50;2.13;;;24.60;90.50;;;;;;5047708;28;20466;-70
2022/05/22 10:32:46;;;;;;;2.37;2.07;;;24.80;90.50;;;;;;5040565;28;20442;-70
2022/05/22 10:35:29;;;;;;;3.20;2.20;;;24.70;90.00;;;;;;5023027;28;20476;-68
2022/05/22 10:38:09;;;;;;;2.30;2.00;;;24.70;88.90;;;;;;5037374;28;20493;-72
2022/05/22 10:43:19;;;;;;;1.97;1.87;;;24.80;90.40;;;;;;5036256;28;20469;-68
2022/05/22 10:45:44;;;;;;;2.60;2.40;;;24.90;90.30;;;;;;5042473;28;20462;-71
2022/05/22 10:48:19;;;;;;;5.33;1.93;;;25.10;90.00;;;;;;5042403;28;20215;-69
2022/05/22 10:51:11;;;;;;;2.50;2.00;;;25.20;89.10;;;;;;5041781;28;20218;-68
2022/05/22 10:53:50;;;;;;;4.03;1.87;;;25.20;89.70;;;;;;5042156;28;21025;-69
2022/05/22 10:56:28;;;;;;;3.57;1.60;;;25.20;89.40;;;;;;5042473;28;20452;-68
2022/05/22 10:59:03;;;;;;;1.83;1.73;;;25.30;88.80;;;;;;5042604;28;20477;-69
2022/05/22 11:01:35;;;;;;;5.77;3.60;;;25.50;87.60;;;;;;5034698;28;20457;-68
2022/05/22 11:04:01;;;;;;;4.80;2.20;;;25.50;84.50;;;;;;5048224;28;20457;-69
2022/05/22 11:06:26;;;;;;;2.60;1.50;;;25.60;84.30;;;;;;5041810;28;20470;-69
2022/05/22 11:08:54;;;;;;;1.90;1.80;;;25.60;82.20;;;;;;5043241;28;20215;-69
2022/05/22 11:11:24;;;;;;;2.27;2.13;;;25.40;82.50;;;;;;5041141;28;20219;-69
2022/05/22 11:13:53;;;;;;;2.40;2.20;;;25.30;84.50;;;;;;5042007;28;20484;-69
2022/05/22 11:16:26;;;;;;;2.30;2.20;;;25.40;84.00;;;;;;5037015;28;20458;-68
2022/05/22 11:19:08;;;;;;;3.10;2.80;;;25.40;84.40;;;;;;5049073;28;20469;-68
2022/05/22 11:21:58;;;;;;;2.20;2.10;;;25.60;85.60;;;;;;5048982;28;20811;-70
2022/05/22 11:24:50;;;;;;;2.40;1.80;;;25.80;85.40;;;;;;5047246;28;20441;-69
2022/05/22 11:27:46;;;;;;;2.37;2.10;;;25.90;84.60;;;;;;5049112;28;20473;-70
2022/05/22 11:30:22;;;;;;;2.40;2.10;;;26.00;84.20;;;;;;5042770;28;20465;-68
2022/05/22 11:33:07;;;;;;;3.63;2.10;;;25.90;83.20;;;;;;5037466;28;20462;-69
2022/05/22 11:36:12;;;;;;;1.97;1.87;;;25.90;82.60;;;;;;5044113;28;20469;-71
2022/05/22 11:38:56;;;;;;;3.77;2.00;;;26.00;82.00;;;;;;5048751;28;20458;-69
2022/05/22 11:41:37;;;;;;;2.03;1.70;;;26.30;82.20;;;;;;5032678;28;20474;-68
2022/05/22 11:44:23;;;;;;;3.33;2.20;;;26.40;82.10;;;;;;5044646;28;20458;-68
2022/05/22 11:47:02;;;;;;;2.50;1.40;;;26.40;80.70;;;;;;5057632;28;20446;-70
2022/05/22 11:50:06;;;;;;;2.27;2.07;;;26.30;80.50;;;;;;5021715;28;20455;-68
2022/05/22 11:52:54;;;;;;;1.50;1.40;;;26.40;79.90;;;;;;5027979;28;20465;-68
2022/05/22 11:55:46;;;;;;;2.00;1.90;;;26.40;78.30;;;;;;5039874;28;20977;-70
2022/05/22 11:58:28;;;;;;;2.33;2.20;;;26.40;78.90;;;;;;5048001;28;20469;-69
2022/05/22 12:01:19;;;;;;;2.03;1.83;;;26.50;78.10;;;;;;5032050;28;20462;-69
2022/05/22 12:03:54;;;;;;;1.90;1.80;;;26.70;77.50;;;;;;5045606;28;20445;-71
2022/05/22 12:06:24;;;;;;;5.90;2.13;;;26.70;78.10;;;;;;5043817;28;20592;-70
2022/05/22 12:08:56;;;;;;;2.47;2.27;;;26.80;79.30;;;;;;5042677;28;20509;-70
2022/05/22 12:11:33;;;;;;;2.13;2.00;;;27.00;79.20;;;;;;5022776;28;20240;-71
2022/05/22 12:14:17;;;;;;;2.13;1.77;;;27.10;79.70;;;;;;5044994;28;20462;-68
2022/05/22 12:16:58;;;;;;;1.70;1.30;;;27.10;79.40;;;;;;5029546;28;20215;-68
2022/05/22 12:19:47;;;;;;;2.10;1.70;;;27.00;78.00;;;;;;5036873;28;20438;-69
2022/05/22 12:23:07;;;;;;;3.07;2.87;;;26.70;76.30;;;;;;5038509;28;20302;-69
2022/05/22 12:25:20;;;;;;;1.93;1.83;;;26.40;77.40;;;;;;5039611;28;20450;-70
2022/05/22 12:27:47;;;;;;;2.03;1.63;;;26.40;77.00;;;;;;5044140;28;20452;-68
2022/05/22 12:30:16;;;;;;;2.17;1.97;;;26.50;79.80;;;;;;5047892;28;20446;-69
2022/05/22 12:33:07;;;;;;;1.80;1.70;;;26.60;78.50;;;;;;5047396;28;20446;-69
2022/05/22 12:35:33;;;;;;;1.30;1.30;;;26.50;77.00;;;;;;5041202;28;20550;-69
2022/05/22 12:38:03;;;;;;;1.67;1.57;;;26.50;77.00;;;;;;5045992;28;20466;-69
2022/05/22 12:40:39;;;;;;;2.40;2.00;;;26.20;76.10;;;;;;5048658;28;20227;-69
2022/05/22 12:43:09;;;;;;;1.63;1.53;;;26.30;77.40;;;;;;5037939;28;20464;-68
2022/05/22 12:45:36;;;;;;;2.00;1.90;;;26.50;78.20;;;;;;5046991;28;21070;-71
2022/05/22 12:48:35;;;;;;;3.50;1.80;;;26.70;76.00;;;;;;5046446;28;20468;-68
2022/05/22 12:51:21;;;;;;;1.67;1.57;;;26.80;75.10;;;;;;5019532;28;20459;-69
2022/05/22 12:53:54;;;;;;;2.83;1.67;;;26.80;76.10;;;;;;5057704;28;20470;-69
2022/05/22 12:56:29;;;;;;;1.67;1.57;;;26.70;76.40;;;;;;5044184;28;20449;-68
2022/05/22 12:58:59;;;;;;;1.90;1.80;;;26.90;77.10;;;;;;5044633;28;20448;-69
2022/05/22 13:01:31;;;;;;;1.87;1.60;;;26.90;75.40;;;;;;5055556;28;21017;-70
2022/05/22 13:04:12;;;;;;;1.97;1.80;;;26.70;75.50;;;;;;5039621;28;20465;-68
2022/05/22 13:06:53;;;;;;;2.00;1.80;;;26.70;74.70;;;;;;5043447;28;20499;-71
2022/05/22 13:09:30;;;;;;;1.37;1.27;;;26.50;74.20;;;;;;5049084;28;20476;-68
2022/05/22 13:12:05;;;;;;;1.77;1.67;;;26.60;76.10;;;;;;5042558;28;20487;-69
2022/05/22 13:14:59;;;;;;;3.07;1.73;;;26.80;75.70;;;;;;5050226;28;20540;-69
2022/05/22 13:17:52;;;;;;;3.37;2.23;;;26.90;75.10;;;;;;5062312;28;20304;-69
2022/05/22 13:20:26;;;;;;;1.70;1.40;;;27.00;76.00;;;;;;5044586;28;20305;-72
2022/05/22 13:23:22;;;;;;;2.40;1.83;;;27.10;76.10;;;;;;5051861;28;20226;-71
2022/05/22 13:26:03;;;;;;;2.00;1.57;;;27.30;76.50;;;;;;5041855;28;20977;-70
2022/05/22 13:28:38;;;;;;;2.22;2.00;;;27.40;76.10;;;;;;5047147;28;20778;-68
2022/05/22 13:31:06;;;;;;;1.52;1.42;;;27.50;75.80;;;;;;5045241;28;20683;-68
2022/05/22 13:33:45;;;;;;;1.92;1.83;;;27.60;74.40;;;;;;5041383;28;20273;-70
2022/05/22 13:36:26;;;;;;;2.28;2.08;;;27.60;73.90;;;;;;5048862;28;20215;-69
2022/05/22 13:38:54;;;;;;;2.00;1.85;;;27.70;74.00;;;;;;5028886;28;20212;-69
2022/05/22 13:41:48;;;;;;;2.10;2.00;;;27.80;73.80;;;;;;5038489;28;20216;-68
2022/05/22 13:44:25;;;;;;;2.28;2.15;;;27.80;73.30;;;;;;5044735;28;20293;-68
2022/05/22 13:47:00;;;;;;;1.70;1.60;;;27.80;74.20;;;;;;5033093;28;20229;-68